createdAt,value
2019-05-19T00:01:10.410Z,71.33
2019-05-19T00:03:39.405Z,71.75
2019-05-19T00:06:08.726Z,70.49
2019-05-19T00:08:37.720Z,70.49
2019-05-19T00:11:06.518Z,70.53
2019-05-19T00:13:35.393Z,70.67
2019-05-19T00:16:05.504Z,70.63
2019-05-19T00:18:34.739Z,70.82
2019-05-19T00:21:04.979Z,70.82
2019-05-19T00:23:34.391Z,71.27
2019-05-19T00:26:04.073Z,71.41
2019-05-19T00:28:33.563Z,71.16
2019-05-19T00:31:03.304Z,71.00
2019-05-19T00:33:33.036Z,71.00
2019-05-19T00:36:02.955Z,68.55
2019-05-19T00:38:32.491Z,68.55
2019-05-19T00:41:02.313Z,69.03
2019-05-19T00:44:59.049Z,71.87
2019-05-19T00:47:29.106Z,73.53
2019-05-19T00:49:57.924Z,73.98
2019-05-19T00:52:47.503Z,73.61
2019-05-19T00:55:16.479Z,73.93
2019-05-19T00:57:47.526Z,74.03
2019-05-19T01:00:17.129Z,74.50
2019-05-19T01:02:46.448Z,75.21
2019-05-19T01:05:15.556Z,74.64
2019-05-19T01:07:44.581Z,74.35
2019-05-19T01:10:13.859Z,74.05
2019-05-19T01:12:42.716Z,73.41
2019-05-19T01:15:11.899Z,72.68
2019-05-19T01:17:40.711Z,73.99
2019-05-19T01:20:09.760Z,74.47
2019-05-19T01:22:38.940Z,74.19
2019-05-19T01:25:08.698Z,73.19
2019-05-19T01:27:36.969Z,73.23
2019-05-19T01:30:07.891Z,73.73
2019-05-19T01:32:37.004Z,72.77
2019-05-19T01:35:06.400Z,71.98
2019-05-19T01:37:35.501Z,70.78
2019-05-19T01:40:05.546Z,73.17
2019-05-19T01:42:34.469Z,73.17
2019-05-19T01:45:04.529Z,72.94
2019-05-19T01:47:33.389Z,72.26
2019-05-19T01:50:16.854Z,71.98
2019-05-19T01:52:33.407Z,71.32
2019-05-19T01:55:02.570Z,72.51
2019-05-19T01:57:32.584Z,73.74
2019-05-19T02:00:01.914Z,74.01
2019-05-19T02:02:32.525Z,74.01
2019-05-19T02:05:01.718Z,74.10
2019-05-19T02:07:30.726Z,74.77
2019-05-19T02:09:58.853Z,75.13
2019-05-19T02:12:27.700Z,74.72
2019-05-19T02:14:55.829Z,75.11
2019-05-19T02:17:24.928Z,76.05
2019-05-19T02:19:53.750Z,75.14
2019-05-19T02:22:21.900Z,73.99
2019-05-19T02:24:50.794Z,73.54
2019-05-19T02:27:20.018Z,73.27
2019-05-19T02:29:49.036Z,73.87
2019-05-19T02:32:18.080Z,74.66
2019-05-19T02:34:46.904Z,75.11
2019-05-19T02:37:15.698Z,73.79
2019-05-19T02:39:43.894Z,73.45
2019-05-19T02:42:15.950Z,72.69
2019-05-19T02:44:49.806Z,72.83
2019-05-19T02:47:22.293Z,73.22
2019-05-19T02:49:54.556Z,73.08
2019-05-19T02:52:25.742Z,72.88
2019-05-19T02:54:54.628Z,73.78
2019-05-19T02:57:23.785Z,74.61
2019-05-19T02:59:53.288Z,74.61
2019-05-19T03:02:22.089Z,74.33
2019-05-19T03:04:50.914Z,74.91
2019-05-19T03:07:19.772Z,75.77
2019-05-19T03:09:49.337Z,76.70
2019-05-19T03:12:18.465Z,76.24
2019-05-19T03:14:47.499Z,75.64
2019-05-19T03:17:17.561Z,75.33
2019-05-19T03:19:46.846Z,73.89
2019-05-19T03:22:15.716Z,73.89
2019-05-19T03:24:43.823Z,74.01
2019-05-19T03:28:51.571Z,74.48
2019-05-19T03:31:36.433Z,74.19
2019-05-19T03:34:05.422Z,74.19
2019-05-19T03:36:34.483Z,73.80
2019-05-19T03:39:07.580Z,73.53
2019-05-19T03:41:36.895Z,74.14
2019-05-19T03:44:06.049Z,74.14
2019-05-19T03:46:35.025Z,74.49
2019-05-19T03:49:04.116Z,74.61
2019-05-19T03:51:33.087Z,75.56
2019-05-19T03:54:01.928Z,74.97
2019-05-19T03:56:31.924Z,75.40
2019-05-19T03:59:01.045Z,75.52
2019-05-19T04:01:30.306Z,75.05
2019-05-19T04:03:59.495Z,74.74
2019-05-19T04:06:28.451Z,74.32
2019-05-19T04:08:57.551Z,72.89
2019-05-19T04:11:26.690Z,72.89
2019-05-19T04:13:54.970Z,72.06
2019-05-19T04:16:24.016Z,72.72
2019-05-19T04:18:52.902Z,72.73
2019-05-19T04:21:21.923Z,72.84
2019-05-19T04:23:50.905Z,72.67
2019-05-19T04:29:06.911Z,70.84
2019-05-19T04:31:36.043Z,70.61
2019-05-19T04:34:05.546Z,70.58
2019-05-19T04:36:34.943Z,69.02
2019-05-19T04:39:06.564Z,66.13
2019-05-19T04:41:39.859Z,63.63
2019-05-19T04:44:06.887Z,62.92
2019-05-19T04:46:36.147Z,62.67
2019-05-19T04:49:05.299Z,63.60
2019-05-19T04:51:34.656Z,63.84
2019-05-19T04:54:03.902Z,58.25
2019-05-19T04:56:32.741Z,58.25
2019-05-19T04:59:02.841Z,58.89
2019-05-19T05:01:31.945Z,57.66
2019-05-19T05:04:00.701Z,60.46
2019-05-19T05:06:28.831Z,59.33
2019-05-19T05:08:57.704Z,59.16
2019-05-19T05:11:26.023Z,58.75
2019-05-19T05:13:55.397Z,58.36
2019-05-19T05:16:25.414Z,59.41
2019-05-19T05:18:54.443Z,57.73
2019-05-19T05:21:23.429Z,57.91
2019-05-19T05:23:52.435Z,57.98
2019-05-19T05:26:21.390Z,57.43
2019-05-19T05:28:50.376Z,58.25
2019-05-19T05:31:19.300Z,55.57
2019-05-19T05:33:48.048Z,56.18
2019-05-19T05:36:17.015Z,51.36
2019-05-19T05:38:46.062Z,46.88
2019-05-19T05:41:15.296Z,43.48
2019-05-19T05:43:44.417Z,33.77
2019-05-19T05:46:13.411Z,35.14
2019-05-19T05:48:42.583Z,38.40
2019-05-19T05:51:11.564Z,41.25
2019-05-19T05:53:40.390Z,41.25
2019-05-19T05:56:09.393Z,41.38
2019-05-19T05:58:38.420Z,39.45
2019-05-19T06:01:07.538Z,39.35
2019-05-19T06:03:36.519Z,43.11
2019-05-19T06:06:06.725Z,43.83
2019-05-19T06:08:36.465Z,43.83
2019-05-19T06:11:05.986Z,45.38
2019-05-19T06:13:35.547Z,45.05
2019-05-19T06:16:04.863Z,45.85
2019-05-19T06:18:34.484Z,45.80
2019-05-19T06:21:03.990Z,46.05
2019-05-19T06:23:33.625Z,45.58
2019-05-19T06:26:02.028Z,47.58
2019-05-19T06:28:31.950Z,47.58
2019-05-19T06:31:00.766Z,48.52
2019-05-19T06:33:28.840Z,48.02
2019-05-19T06:35:57.893Z,48.31
2019-05-19T06:38:27.140Z,46.67
2019-05-19T06:40:56.059Z,48.08
2019-05-19T06:43:25.468Z,46.95
2019-05-19T06:45:54.495Z,46.98
2019-05-19T06:48:23.511Z,46.62
2019-05-19T06:50:52.723Z,44.77
2019-05-19T06:53:20.989Z,43.98
2019-05-19T06:55:50.235Z,42.78
2019-05-19T06:58:19.453Z,40.64
2019-05-19T07:00:48.686Z,40.79
2019-05-19T07:03:17.806Z,39.08
2019-05-19T07:05:46.718Z,38.05
2019-05-19T07:08:14.982Z,36.81
2019-05-19T07:10:44.114Z,38.50
2019-05-19T07:14:17.971Z,39.37
2019-05-19T07:16:48.693Z,39.62
2019-05-19T07:19:17.781Z,39.95
2019-05-19T07:21:46.001Z,43.50
2019-05-19T07:24:15.082Z,42.80
2019-05-19T07:26:45.072Z,42.42
2019-05-19T07:29:13.915Z,41.36
2019-05-19T07:31:43.058Z,41.82
2019-05-19T07:34:12.059Z,41.48
2019-05-19T07:36:42.433Z,40.51
2019-05-19T07:39:11.430Z,40.38
2019-05-19T07:41:40.413Z,40.59
2019-05-19T07:44:09.407Z,43.38
2019-05-19T07:46:38.512Z,43.93
2019-05-19T07:49:07.400Z,42.66
2019-05-19T07:51:36.899Z,42.05
2019-05-19T07:54:06.703Z,42.71
2019-05-19T07:56:36.250Z,42.55
2019-05-19T07:59:07.921Z,41.91
2019-05-19T08:01:36.922Z,41.33
2019-05-19T08:04:06.504Z,41.33
2019-05-19T08:06:35.501Z,38.45
2019-05-19T08:09:05.817Z,37.97
2019-05-19T08:11:36.055Z,37.53
2019-05-19T08:14:22.555Z,33.00
2019-05-19T08:16:51.211Z,30.38
2019-05-19T08:19:20.615Z,30.38
2019-05-19T08:21:49.256Z,27.96
2019-05-19T08:24:17.902Z,23.85
2019-05-19T08:26:46.913Z,25.85
2019-05-19T08:29:15.715Z,26.59
2019-05-19T08:31:43.905Z,27.30
2019-05-19T08:34:12.967Z,24.66
2019-05-19T08:36:41.916Z,22.66
2019-05-19T08:39:10.714Z,20.60
2019-05-19T08:41:38.857Z,21.81
2019-05-19T08:44:07.983Z,23.86
2019-05-19T08:46:37.463Z,22.00
2019-05-19T08:49:07.525Z,21.18
2019-05-19T08:53:30.070Z,22.31
2019-05-19T08:55:58.922Z,22.62
2019-05-19T08:58:27.939Z,23.98
2019-05-19T09:00:57.109Z,24.83
2019-05-19T09:03:26.439Z,24.09
2019-05-19T09:05:55.740Z,23.96
2019-05-19T09:08:24.344Z,24.58
2019-05-19T09:10:53.427Z,24.36
2019-05-19T09:13:22.490Z,23.83
2019-05-19T09:15:52.455Z,21.63
2019-05-19T09:18:21.735Z,22.96
2019-05-19T09:20:49.995Z,22.96
2019-05-19T09:23:19.443Z,23.19
2019-05-19T09:25:48.559Z,21.43
2019-05-19T09:28:17.722Z,19.74
2019-05-19T09:30:46.937Z,19.19
2019-05-19T09:33:17.448Z,20.40
2019-05-19T09:35:46.486Z,22.67
2019-05-19T09:38:14.997Z,25.87
2019-05-19T09:40:43.950Z,25.87
2019-05-19T09:43:13.102Z,24.84
2019-05-19T09:45:42.046Z,24.45
2019-05-19T09:48:11.095Z,25.27
2019-05-19T09:50:40.062Z,24.96
2019-05-19T09:53:09.416Z,24.94
2019-05-19T09:55:38.430Z,26.04
2019-05-19T09:58:08.032Z,26.31
2019-05-19T10:00:37.558Z,28.29
2019-05-19T10:03:07.072Z,28.04
2019-05-19T10:05:36.585Z,27.40
2019-05-19T10:08:06.224Z,23.62
2019-05-19T10:11:47.865Z,23.62
2019-05-19T10:14:17.500Z,22.23
2019-05-19T10:16:46.944Z,25.24
2019-05-19T10:19:15.929Z,25.24
2019-05-19T10:21:44.935Z,25.02
2019-05-19T10:24:14.307Z,25.61
2019-05-19T10:26:43.802Z,21.99
2019-05-19T10:29:13.160Z,22.32
2019-05-19T10:31:42.408Z,21.68
2019-05-19T10:34:11.886Z,21.76
2019-05-19T10:36:41.066Z,21.76
2019-05-19T10:39:10.574Z,21.64
2019-05-19T10:41:40.442Z,16.15
2019-05-19T10:44:09.375Z,16.15
2019-05-19T10:46:38.941Z,15.35
2019-05-19T10:49:08.740Z,14.70
2019-05-19T10:51:37.522Z,15.42
2019-05-19T10:54:07.709Z,14.25
2019-05-19T10:56:37.051Z,14.03
2019-05-19T10:59:07.011Z,15.60
2019-05-19T11:01:36.822Z,18.34
2019-05-19T11:04:06.723Z,18.08
2019-05-19T11:06:36.067Z,20.38
2019-05-19T11:09:08.406Z,21.27
2019-05-19T11:11:38.302Z,20.14
2019-05-19T11:14:07.959Z,17.35
2019-05-19T11:16:38.054Z,17.27
2019-05-19T11:19:08.114Z,17.41
2019-05-19T11:21:37.219Z,16.74
2019-05-19T11:24:06.916Z,18.03
2019-05-19T11:26:37.302Z,19.65
2019-05-19T11:29:08.386Z,21.82
2019-05-19T11:31:37.834Z,23.11
2019-05-19T11:34:10.549Z,23.63
2019-05-19T11:36:39.554Z,21.82
2019-05-19T11:39:09.864Z,21.45
2019-05-19T11:41:39.488Z,19.55
2019-05-19T11:44:08.682Z,19.37
2019-05-19T11:46:38.530Z,21.44
2019-05-19T11:49:08.830Z,21.44
2019-05-19T11:51:38.717Z,21.19
2019-05-19T11:54:08.102Z,18.44
2019-05-19T11:56:37.589Z,17.13
2019-05-19T11:59:06.633Z,20.15
2019-05-19T12:01:34.910Z,20.26
2019-05-19T12:04:04.424Z,20.40
2019-05-19T12:06:39.262Z,20.99
2019-05-19T12:09:07.715Z,21.53
2019-05-19T12:11:37.506Z,22.47
2019-05-19T12:14:07.549Z,23.60
2019-05-19T12:16:36.954Z,23.60
2019-05-19T12:19:07.293Z,25.40
2019-05-19T12:21:37.160Z,24.14
2019-05-19T12:24:06.699Z,21.96
2019-05-19T12:26:35.059Z,22.47
2019-05-19T12:29:05.520Z,24.12
2019-05-19T12:31:34.558Z,25.11
2019-05-19T12:34:02.963Z,22.72
2019-05-19T12:36:31.951Z,22.72
2019-05-19T12:39:00.979Z,22.37
2019-05-19T12:41:30.463Z,22.34
2019-05-19T12:43:59.472Z,20.35
2019-05-19T12:46:28.562Z,17.89
2019-05-19T12:48:57.001Z,18.09
2019-05-19T12:51:26.891Z,18.09
2019-05-19T12:53:56.445Z,17.11
2019-05-19T12:56:38.640Z,16.34
2019-05-19T12:58:56.559Z,16.88
2019-05-19T13:01:25.530Z,19.23
2019-05-19T13:03:54.742Z,20.56
2019-05-19T13:06:23.951Z,20.56
2019-05-19T13:08:52.915Z,20.33
2019-05-19T13:11:22.135Z,19.79
2019-05-19T13:13:51.548Z,19.73
2019-05-19T13:16:20.425Z,20.42
2019-05-19T13:18:49.413Z,20.55
2019-05-19T13:21:18.757Z,20.51
2019-05-19T13:23:47.955Z,19.50
2019-05-19T13:26:16.954Z,19.25
2019-05-19T13:28:45.947Z,19.77
2019-05-19T13:31:14.952Z,20.76
2019-05-19T13:33:43.941Z,20.73
2019-05-19T13:36:13.000Z,21.04
2019-05-19T13:38:42.421Z,22.08
2019-05-19T13:41:11.448Z,22.99
2019-05-19T13:43:40.436Z,23.28
2019-05-19T13:46:09.956Z,23.43
2019-05-19T13:48:39.586Z,24.49
2019-05-19T13:51:12.089Z,27.49
2019-05-19T13:53:40.959Z,27.49
2019-05-19T13:56:10.067Z,27.76
2019-05-19T13:58:39.883Z,28.32
2019-05-19T14:01:09.481Z,28.33
2019-05-19T14:03:39.069Z,28.91
2019-05-19T14:06:09.281Z,28.91
2019-05-19T14:08:40.590Z,29.25
2019-05-19T14:11:10.298Z,28.71
2019-05-19T14:13:39.941Z,28.71
2019-05-19T14:16:09.613Z,29.20
2019-05-19T14:18:39.605Z,29.64
2019-05-19T14:21:09.126Z,29.41
2019-05-19T14:23:38.588Z,29.41
2019-05-19T14:26:08.023Z,29.14
2019-05-19T14:28:37.539Z,29.14
2019-05-19T14:31:07.601Z,29.87
2019-05-19T14:33:37.931Z,29.07
2019-05-19T14:36:07.751Z,29.07
2019-05-19T14:38:35.854Z,29.16
2019-05-19T14:41:05.013Z,28.81
2019-05-19T14:43:34.550Z,28.67
2019-05-19T14:46:03.560Z,29.17
2019-05-19T14:48:32.568Z,29.63
2019-05-19T14:51:01.574Z,29.63
2019-05-19T14:53:31.414Z,28.88
2019-05-19T14:56:00.442Z,28.88
2019-05-19T14:58:29.595Z,29.51
2019-05-19T15:00:58.579Z,28.75
2019-05-19T15:03:27.734Z,29.11
2019-05-19T15:05:56.773Z,29.11
2019-05-19T15:08:25.392Z,30.70
2019-05-19T15:10:54.473Z,29.07
2019-05-19T15:13:23.760Z,27.73
2019-05-19T15:15:52.795Z,27.82
2019-05-19T15:18:22.094Z,27.45
2019-05-19T15:20:51.283Z,28.06
2019-05-19T15:23:20.316Z,27.90
2019-05-19T15:25:49.125Z,28.45
2019-05-19T15:28:18.114Z,28.36
2019-05-19T15:30:47.498Z,27.98
2019-05-19T15:33:16.758Z,27.68
2019-05-19T15:35:45.645Z,28.43
2019-05-19T15:38:13.968Z,28.72
2019-05-19T15:40:43.304Z,28.72
2019-05-19T15:43:12.603Z,29.84
2019-05-19T15:45:41.773Z,32.05
2019-05-19T15:48:11.137Z,32.05
2019-05-19T15:50:40.951Z,31.69
2019-05-19T15:53:12.521Z,37.43
2019-05-19T16:15:49.531Z,81.54
2019-05-19T16:18:21.718Z,78.39
2019-05-19T16:20:49.919Z,78.39
2019-05-19T16:23:19.012Z,77.93
2019-05-19T16:25:49.738Z,77.83
2019-05-19T16:28:29.923Z,75.77
2019-05-19T16:30:49.335Z,74.10
2019-05-19T16:33:18.113Z,76.30
2019-05-19T16:35:47.972Z,75.30
2019-05-19T16:38:16.998Z,75.30
2019-05-19T16:40:48.102Z,72.76
2019-05-19T16:43:17.314Z,74.73
2019-05-19T16:45:47.759Z,73.27
2019-05-19T16:48:17.110Z,75.70
2019-05-19T16:50:46.621Z,77.47
2019-05-19T16:53:17.437Z,77.37
2019-05-19T16:55:46.781Z,75.91
2019-05-19T16:58:20.974Z,74.47
2019-05-19T17:00:47.013Z,71.69
2019-05-19T17:03:16.319Z,72.65
2019-05-19T17:05:45.601Z,73.95
2019-05-19T17:08:13.944Z,72.94
2019-05-19T17:10:43.183Z,72.94
2019-05-19T17:13:12.585Z,72.04
2019-05-19T17:15:41.565Z,72.95
2019-05-19T17:18:11.006Z,74.85
2019-05-19T17:20:40.486Z,74.85
2019-05-19T17:23:09.774Z,74.30
2019-05-19T17:25:38.926Z,73.20
2019-05-19T17:28:08.922Z,73.63
2019-05-19T17:30:39.633Z,74.04
2019-05-19T17:33:11.573Z,72.97
2019-05-19T17:35:41.096Z,74.00
2019-05-19T17:38:11.072Z,74.00
2019-05-19T17:40:40.878Z,73.95
2019-05-19T17:43:09.811Z,73.29
2019-05-19T17:45:39.307Z,72.92
2019-05-19T17:48:10.294Z,70.29
2019-05-19T17:50:39.522Z,71.60
2019-05-19T17:53:09.546Z,70.81
2019-05-19T17:55:39.130Z,72.00
2019-05-19T17:58:08.420Z,72.56
2019-05-19T18:00:39.987Z,73.66
2019-05-19T18:03:10.021Z,72.06
2019-05-19T18:05:40.303Z,72.63
2019-05-19T18:08:10.008Z,72.69
2019-05-19T18:10:40.129Z,71.38
2019-05-19T18:13:09.740Z,71.66
2019-05-19T18:15:38.726Z,71.92
2019-05-19T18:18:08.455Z,72.88
2019-05-19T18:20:37.581Z,72.79
2019-05-19T18:23:06.816Z,72.43
2019-05-19T18:25:35.905Z,73.18
2019-05-19T18:28:05.013Z,73.55
2019-05-19T18:30:34.070Z,73.05
2019-05-19T18:33:03.202Z,72.58
2019-05-19T18:35:35.607Z,73.17
2019-05-19T18:38:04.558Z,72.12
2019-05-19T18:40:34.028Z,72.12
2019-05-19T18:43:03.140Z,72.69
2019-05-19T18:45:32.528Z,73.80
2019-05-19T18:48:01.777Z,73.87
2019-05-19T18:50:30.048Z,73.43
2019-05-19T18:52:59.456Z,73.77
2019-05-19T18:55:28.639Z,73.21
2019-05-19T18:57:57.021Z,73.93
2019-05-19T19:00:38.894Z,73.99
2019-05-19T19:03:08.959Z,72.90
2019-05-19T19:05:38.179Z,72.38
2019-05-19T19:08:07.484Z,73.40
2019-05-19T19:10:36.888Z,73.74
2019-05-19T19:13:05.910Z,75.45
2019-05-19T19:15:34.982Z,73.96
2019-05-19T19:18:04.316Z,74.04
2019-05-19T19:20:34.646Z,74.16
2019-05-19T19:23:04.419Z,73.40
2019-05-19T19:25:34.103Z,73.92
2019-05-19T19:28:03.495Z,74.76
2019-05-19T19:30:32.592Z,75.72
2019-05-19T19:33:01.698Z,74.97
2019-05-19T19:35:39.444Z,74.97
2019-05-19T19:38:03.078Z,74.22
2019-05-19T19:40:33.496Z,74.22
2019-05-19T19:43:02.524Z,74.74
2019-05-19T19:45:31.726Z,74.18
2019-05-19T19:48:00.737Z,74.18
2019-05-19T19:50:28.932Z,74.99
2019-05-19T19:53:01.058Z,75.05
2019-05-19T19:55:30.330Z,73.89
2019-05-19T19:57:59.448Z,73.83
2019-05-19T20:00:44.155Z,74.01
2019-05-19T20:03:13.592Z,73.05
2019-05-19T20:05:45.706Z,74.16
2019-05-19T20:08:17.569Z,74.48
2019-05-19T20:10:46.281Z,74.58
2019-05-19T20:13:18.579Z,74.58
2019-05-19T20:15:47.116Z,75.79
2019-05-19T20:18:16.164Z,75.79
2019-05-19T20:20:45.331Z,74.71
2019-05-19T20:23:14.127Z,74.53
2019-05-19T20:25:43.320Z,75.31
2019-05-19T20:28:12.798Z,74.86
2019-05-19T20:30:41.649Z,75.47
2019-05-19T20:33:11.059Z,74.65
2019-05-19T20:35:40.933Z,74.65
2019-05-19T20:38:12.785Z,75.22
2019-05-19T20:40:43.430Z,74.69
2019-05-19T20:43:12.770Z,74.68
2019-05-19T20:45:41.466Z,73.98
2019-05-19T20:48:10.955Z,73.70
2019-05-19T20:50:40.444Z,74.35
2019-05-19T20:53:10.593Z,74.20
2019-05-19T20:55:39.817Z,73.99
2019-05-19T20:58:08.985Z,73.99
2019-05-19T21:00:49.535Z,73.53
2019-05-19T21:06:55.729Z,100.00
2019-05-19T21:09:24.714Z,79.55
2019-05-19T21:11:53.739Z,74.99
2019-05-19T21:14:21.957Z,75.53
2019-05-19T21:16:51.363Z,75.36
2019-05-19T21:19:20.469Z,76.87
2019-05-19T21:21:49.827Z,77.50
2019-05-19T21:24:18.723Z,75.96
2019-05-19T21:26:46.850Z,75.21
2019-05-19T21:29:16.130Z,76.29
2019-05-19T21:31:45.137Z,79.51
2019-05-19T21:34:14.061Z,72.27
2019-05-19T21:36:43.732Z,66.73
2019-05-19T21:39:14.605Z,60.63
2019-05-19T21:41:43.767Z,55.90
2019-05-19T21:44:13.886Z,55.90
2019-05-19T21:46:43.603Z,55.35
2019-05-19T21:49:12.521Z,59.48
2019-05-19T21:51:42.446Z,59.63
2019-05-19T21:54:12.028Z,59.69
2019-05-19T21:56:41.607Z,56.99
2019-05-19T21:59:11.174Z,52.13
2019-05-19T22:01:40.618Z,52.13
2019-05-19T22:04:10.325Z,50.99
2019-05-19T22:06:41.609Z,51.24
2019-05-19T22:09:11.495Z,51.10
2019-05-19T22:11:41.437Z,52.36
2019-05-19T22:14:11.433Z,52.36
2019-05-19T22:16:40.986Z,53.26
2019-05-19T22:19:10.485Z,52.41
2019-05-19T22:21:41.095Z,52.37
2019-05-19T22:24:10.406Z,52.10
2019-05-19T22:26:39.595Z,51.27
2019-05-19T22:29:08.870Z,49.53
2019-05-19T22:31:38.133Z,49.53
2019-05-19T22:34:07.989Z,50.44
2019-05-19T22:36:37.486Z,50.33
2019-05-19T22:39:07.123Z,49.88
2019-05-19T22:41:37.075Z,50.89
2019-05-19T22:44:06.148Z,51.61
2019-05-19T22:46:35.459Z,51.72
2019-05-19T22:49:04.734Z,51.02
2019-05-19T22:51:33.734Z,51.93
2019-05-19T22:54:01.977Z,52.29
2019-05-19T22:56:30.929Z,52.19
2019-05-19T22:59:00.431Z,52.41
2019-05-19T23:01:29.569Z,52.41
2019-05-19T23:03:58.930Z,52.07
2019-05-19T23:06:27.920Z,52.07
2019-05-19T23:08:57.450Z,51.35
2019-05-19T23:11:26.562Z,52.30
2019-05-19T23:13:56.707Z,50.93
2019-05-19T23:16:25.058Z,50.93
2019-05-19T23:18:54.405Z,52.48
2019-05-19T23:21:23.553Z,52.60
2019-05-19T23:23:53.930Z,52.44
2019-05-19T23:26:23.214Z,52.44
2019-05-19T23:28:52.298Z,52.35
2019-05-19T23:31:21.410Z,52.62
2019-05-19T23:33:50.553Z,52.38
2019-05-19T23:36:19.578Z,53.47
2019-05-19T23:38:48.741Z,53.35
2019-05-19T23:41:16.833Z,53.35
2019-05-19T23:43:46.152Z,54.07
2019-05-19T23:46:15.303Z,56.11
2019-05-19T23:48:44.580Z,61.31
2019-05-19T23:51:13.977Z,61.23
2019-05-19T23:53:43.522Z,61.23
2019-05-19T23:56:12.698Z,61.16
2019-05-19T23:58:42.049Z,61.90
